createdAt,value
2023-10-06T00:02:30.065Z,61.42
2023-10-06T00:05:02.248Z,60.97
2023-10-06T00:07:32.514Z,61.70
2023-10-06T00:10:00.962Z,62.21
2023-10-06T00:12:32.732Z,62.25
2023-10-06T00:15:08.457Z,62.07
2023-10-06T00:17:37.186Z,61.72
2023-10-06T00:20:22.798Z,62.08
2023-10-06T00:22:51.519Z,62.90
2023-10-06T00:25:29.088Z,62.60
2023-10-06T00:27:57.542Z,62.66
2023-10-06T00:30:26.674Z,62.94
2023-10-06T00:32:56.216Z,63.04
2023-10-06T00:35:32.245Z,63.43
2023-10-06T00:38:13.886Z,64.53
2023-10-06T00:40:46.305Z,64.71
2023-10-06T00:43:18.031Z,64.77
2023-10-06T00:45:49.357Z,64.61
2023-10-06T00:48:18.083Z,64.36
2023-10-06T00:50:49.882Z,64.74
2023-10-06T00:53:21.799Z,65.57
2023-10-06T00:55:51.112Z,64.84
2023-10-06T00:58:20.528Z,64.87
2023-10-06T01:00:48.948Z,64.67
2023-10-06T01:03:17.244Z,63.97
2023-10-06T01:05:47.815Z,64.57
2023-10-06T01:08:18.202Z,64.20
2023-10-06T01:10:52.543Z,64.08
2023-10-06T01:13:21.907Z,65.01
2023-10-06T01:15:50.822Z,65.11
2023-10-06T01:18:24.659Z,64.02
2023-10-06T01:20:55.105Z,63.89
2023-10-06T01:23:28.968Z,64.48
2023-10-06T01:26:01.163Z,64.27
2023-10-06T01:28:29.582Z,64.34
2023-10-06T01:30:59.068Z,63.82
2023-10-06T01:33:27.689Z,63.90
2023-10-06T01:35:56.389Z,64.03
2023-10-06T01:38:26.073Z,63.95
2023-10-06T01:40:55.499Z,63.64
2023-10-06T01:43:31.284Z,64.09
2023-10-06T01:46:00.848Z,63.54
2023-10-06T01:48:31.334Z,62.89
2023-10-06T01:51:00.097Z,63.95
2023-10-06T01:53:34.627Z,63.44
2023-10-06T01:56:08.054Z,64.15
2023-10-06T01:58:38.050Z,64.54
2023-10-06T02:01:08.392Z,64.31
2023-10-06T02:03:41.674Z,64.58
2023-10-06T02:06:16.767Z,64.33
2023-10-06T02:08:51.656Z,63.86
2023-10-06T02:11:22.181Z,64.91
2023-10-06T02:13:50.522Z,64.96
2023-10-06T02:16:24.410Z,64.68
2023-10-06T02:18:55.134Z,64.00
2023-10-06T02:21:26.223Z,64.49
2023-10-06T02:24:04.830Z,64.63
2023-10-06T02:26:36.993Z,64.28
2023-10-06T02:29:09.100Z,65.05
2023-10-06T02:31:37.819Z,64.93
2023-10-06T02:34:13.640Z,64.14
2023-10-06T02:36:43.166Z,65.03
2023-10-06T02:39:17.139Z,65.38
2023-10-06T02:41:47.649Z,65.38
2023-10-06T02:44:16.883Z,65.52
2023-10-06T02:46:46.886Z,65.12
2023-10-06T02:49:15.558Z,65.91
2023-10-06T02:51:49.724Z,65.73
2023-10-06T02:54:29.060Z,66.25
2023-10-06T02:56:57.720Z,66.30
2023-10-06T02:59:26.662Z,66.06
2023-10-06T03:01:57.893Z,66.26
2023-10-06T03:04:30.003Z,66.81
2023-10-06T03:07:01.096Z,66.97
2023-10-06T03:09:38.277Z,67.23
2023-10-06T03:12:13.572Z,67.02
2023-10-06T03:14:42.886Z,67.61
2023-10-06T03:17:14.648Z,67.97
2023-10-06T03:19:45.184Z,68.01
2023-10-06T03:22:15.339Z,68.28
2023-10-06T03:24:59.083Z,68.63
2023-10-06T03:27:29.317Z,68.41
2023-10-06T03:30:09.120Z,69.00
2023-10-06T03:32:40.807Z,69.04
2023-10-06T03:35:22.667Z,69.41
2023-10-06T03:37:55.353Z,69.23
2023-10-06T03:40:36.750Z,69.64
2023-10-06T03:43:07.961Z,70.16
2023-10-06T03:45:36.383Z,70.26
2023-10-06T03:48:12.787Z,70.52
2023-10-06T03:50:44.719Z,70.87
2023-10-06T03:53:16.141Z,70.53
2023-10-06T03:55:47.692Z,70.80
2023-10-06T03:58:18.072Z,70.88
2023-10-06T04:00:49.840Z,71.47
2023-10-06T04:03:20.005Z,71.68
2023-10-06T04:05:50.187Z,71.62
2023-10-06T04:08:22.129Z,71.46
2023-10-06T04:10:56.175Z,71.29
2023-10-06T04:13:24.774Z,71.52
2023-10-06T04:15:53.950Z,71.35
2023-10-06T04:18:24.979Z,71.39
2023-10-06T04:20:54.617Z,71.41
2023-10-06T04:23:25.198Z,71.94
2023-10-06T04:25:57.783Z,72.25
2023-10-06T04:28:29.568Z,71.92
2023-10-06T04:31:02.493Z,71.47
2023-10-06T04:33:31.141Z,71.82
2023-10-06T04:36:01.544Z,71.91
2023-10-06T04:38:30.829Z,71.43
2023-10-06T04:41:01.024Z,71.40
2023-10-06T04:43:29.282Z,71.06
2023-10-06T04:45:57.601Z,70.94
2023-10-06T04:48:26.292Z,70.70
2023-10-06T04:50:57.145Z,70.14
2023-10-06T04:53:25.589Z,69.65
2023-10-06T04:55:53.916Z,69.19
2023-10-06T04:58:24.379Z,67.83
2023-10-06T05:00:54.961Z,66.66
2023-10-06T05:03:23.401Z,66.50
2023-10-06T05:05:52.153Z,63.17
2023-10-06T05:08:21.390Z,61.42
2023-10-06T05:10:50.921Z,59.77
2023-10-06T05:13:19.267Z,55.89
2023-10-06T05:15:48.794Z,53.87
2023-10-06T05:18:18.053Z,51.83
2023-10-06T05:20:47.666Z,50.17
2023-10-06T05:23:16.848Z,48.87
2023-10-06T05:25:46.418Z,45.54
2023-10-06T05:28:18.300Z,45.91
2023-10-06T05:30:49.127Z,42.07
2023-10-06T05:33:17.556Z,42.62
2023-10-06T05:35:47.565Z,41.28
2023-10-06T05:38:15.972Z,40.60
2023-10-06T05:40:45.499Z,39.77
2023-10-06T05:43:14.099Z,40.02
2023-10-06T05:45:43.566Z,40.38
2023-10-06T05:48:14.268Z,39.94
2023-10-06T05:50:42.821Z,41.33
2023-10-06T05:53:14.066Z,42.06
2023-10-06T05:55:43.648Z,42.40
2023-10-06T05:58:15.800Z,43.02
2023-10-06T06:00:53.879Z,42.77
2023-10-06T06:03:25.148Z,43.23
2023-10-06T06:05:59.123Z,43.08
2023-10-06T06:08:31.431Z,42.79
2023-10-06T06:11:01.157Z,42.22
2023-10-06T06:13:29.385Z,40.43
2023-10-06T06:15:57.946Z,39.49
2023-10-06T06:18:28.874Z,37.89
2023-10-06T06:20:57.195Z,36.70
2023-10-06T06:23:26.991Z,35.55
2023-10-06T06:25:55.780Z,34.52
2023-10-06T06:28:23.974Z,32.47
2023-10-06T06:30:52.204Z,31.85
2023-10-06T06:33:23.578Z,30.96
2023-10-06T06:35:53.641Z,30.24
2023-10-06T06:38:26.152Z,29.90
2023-10-06T06:40:55.052Z,29.73
2023-10-06T06:43:23.316Z,29.19
2023-10-06T06:45:51.540Z,29.41
2023-10-06T06:48:21.489Z,28.33
2023-10-06T06:50:51.280Z,28.84
2023-10-06T06:53:21.111Z,28.96
2023-10-06T06:55:49.699Z,28.78
2023-10-06T06:58:18.560Z,28.71
2023-10-06T07:00:49.220Z,29.36
2023-10-06T07:03:17.846Z,30.05
2023-10-06T07:05:46.186Z,29.47
2023-10-06T07:08:16.935Z,28.95
2023-10-06T07:10:53.648Z,28.46
2023-10-06T07:13:23.803Z,28.04
2023-10-06T07:15:52.324Z,27.82
2023-10-06T07:18:20.909Z,27.26
2023-10-06T07:20:50.498Z,26.92
2023-10-06T07:23:19.418Z,26.07
2023-10-06T07:25:49.106Z,25.34
2023-10-06T07:28:19.022Z,27.32
2023-10-06T07:30:47.616Z,27.35
2023-10-06T07:33:15.987Z,27.38
2023-10-06T07:35:44.953Z,27.20
2023-10-06T07:38:15.424Z,26.49
2023-10-06T07:40:44.471Z,26.13
2023-10-06T07:43:17.008Z,26.24
2023-10-06T07:45:45.497Z,26.48
2023-10-06T07:48:13.846Z,26.89
2023-10-06T07:50:42.179Z,27.00
2023-10-06T07:53:10.950Z,27.36
2023-10-06T07:55:41.740Z,28.05
2023-10-06T07:58:10.027Z,29.39
2023-10-06T08:00:43.315Z,30.13
2023-10-06T08:03:12.469Z,30.93
2023-10-06T08:05:41.759Z,32.27
2023-10-06T08:08:10.429Z,33.53
2023-10-06T08:10:39.284Z,34.23
2023-10-06T08:13:09.145Z,34.91
2023-10-06T08:15:41.989Z,35.14
2023-10-06T08:18:10.462Z,35.78
2023-10-06T08:20:41.402Z,36.65
2023-10-06T08:23:13.083Z,36.87
2023-10-06T08:28:14.232Z,38.03
2023-10-06T08:30:44.762Z,38.16
2023-10-06T08:33:14.964Z,38.38
2023-10-06T08:35:45.448Z,38.56
2023-10-06T08:38:15.861Z,39.17
2023-10-06T08:40:44.428Z,38.83
2023-10-06T08:43:16.886Z,38.71
2023-10-06T08:45:46.786Z,39.66
2023-10-06T08:48:17.418Z,40.17
2023-10-06T08:50:47.167Z,39.41
2023-10-06T08:53:16.489Z,39.19
2023-10-06T08:55:45.744Z,39.73
2023-10-06T08:58:15.157Z,39.06
2023-10-06T09:00:44.912Z,39.73
2023-10-06T09:03:16.300Z,39.48
2023-10-06T09:05:46.521Z,39.43
2023-10-06T09:08:16.525Z,39.04
2023-10-06T09:10:52.647Z,39.17
2023-10-06T09:13:23.365Z,39.28
2023-10-06T09:16:00.918Z,39.99
2023-10-06T09:18:33.156Z,39.24
2023-10-06T09:21:13.447Z,40.57
2023-10-06T09:23:42.377Z,40.03
2023-10-06T09:26:13.809Z,39.61
2023-10-06T09:28:53.715Z,40.04
2023-10-06T09:31:37.075Z,39.40
2023-10-06T09:34:10.813Z,38.71
2023-10-06T09:36:45.845Z,38.38
2023-10-06T09:39:27.396Z,38.23
2023-10-06T09:41:56.756Z,38.04
2023-10-06T09:44:27.238Z,38.12
2023-10-06T09:47:02.481Z,38.09
2023-10-06T09:49:34.872Z,37.40
2023-10-06T09:52:04.776Z,36.88
2023-10-06T09:54:35.136Z,37.68
2023-10-06T09:57:05.290Z,37.23
2023-10-06T09:59:35.201Z,36.95
2023-10-06T10:02:06.537Z,36.58
2023-10-06T10:04:36.954Z,35.72
2023-10-06T10:07:09.248Z,36.04
2023-10-06T10:09:44.887Z,36.50
2023-10-06T10:12:36.010Z,36.79
2023-10-06T10:15:20.736Z,36.14
2023-10-06T10:17:56.799Z,36.45
2023-10-06T10:20:28.008Z,37.40
2023-10-06T10:22:58.222Z,36.93
2023-10-06T10:25:32.365Z,36.47
2023-10-06T10:28:14.524Z,37.35
2023-10-06T10:30:56.861Z,37.17
2023-10-06T10:33:26.718Z,37.21
2023-10-06T10:36:22.948Z,38.07
2023-10-06T10:39:10.571Z,37.79
2023-10-06T10:41:41.765Z,37.59
2023-10-06T10:44:25.448Z,36.75
2023-10-06T10:46:57.390Z,36.40
2023-10-06T10:49:31.845Z,36.14
2023-10-06T10:52:03.629Z,36.55
2023-10-06T10:54:35.071Z,37.81
2023-10-06T10:57:10.664Z,37.30
2023-10-06T11:00:16.353Z,37.20
2023-10-06T11:03:05.889Z,37.16
2023-10-06T11:05:35.343Z,37.38
2023-10-06T11:08:06.731Z,37.60
2023-10-06T11:10:35.481Z,36.67
2023-10-06T11:13:19.865Z,37.21
2023-10-06T11:15:50.699Z,36.64
2023-10-06T11:18:21.797Z,36.78
2023-10-06T11:20:51.226Z,36.46
2023-10-06T11:23:21.167Z,36.00
2023-10-06T11:25:51.617Z,37.45
2023-10-06T11:28:21.168Z,36.82
2023-10-06T11:30:50.756Z,37.10
2023-10-06T11:33:22.099Z,37.98
2023-10-06T11:35:50.780Z,38.58
2023-10-06T11:38:21.247Z,37.91
2023-10-06T11:40:54.284Z,37.13
2023-10-06T11:43:23.359Z,36.43
2023-10-06T11:46:02.966Z,36.95
2023-10-06T11:48:35.152Z,36.46
2023-10-06T11:51:07.587Z,37.25
2023-10-06T11:53:38.273Z,37.68
2023-10-06T11:56:09.081Z,37.61
2023-10-06T11:58:38.863Z,38.37
2023-10-06T12:01:07.921Z,37.97
2023-10-06T12:03:43.331Z,38.33
2023-10-06T12:06:14.534Z,38.47
2023-10-06T12:08:45.704Z,38.38
2023-10-06T12:11:16.021Z,38.27
2023-10-06T12:13:46.633Z,38.00
2023-10-06T12:16:17.407Z,38.30
2023-10-06T12:18:47.513Z,38.50
2023-10-06T12:21:16.501Z,38.44
2023-10-06T12:23:46.877Z,38.96
2023-10-06T12:26:15.594Z,38.66
2023-10-06T12:28:45.284Z,38.95
2023-10-06T12:31:13.771Z,39.30
2023-10-06T12:33:42.302Z,38.99
2023-10-06T12:36:13.610Z,40.38
2023-10-06T12:38:42.349Z,38.89
2023-10-06T12:41:13.595Z,39.36
2023-10-06T12:43:41.971Z,39.24
2023-10-06T12:46:10.861Z,39.96
2023-10-06T12:48:39.633Z,40.18
2023-10-06T12:51:12.714Z,40.07
2023-10-06T12:53:44.074Z,38.59
2023-10-06T12:56:14.143Z,38.68
2023-10-06T12:58:42.373Z,38.60
2023-10-06T13:01:11.606Z,38.68
2023-10-06T13:03:41.566Z,39.28
2023-10-06T13:06:14.304Z,38.87
2023-10-06T13:08:43.486Z,38.58
2023-10-06T13:11:13.176Z,39.42
2023-10-06T13:13:41.591Z,39.56
2023-10-06T13:16:11.108Z,39.03
2023-10-06T13:18:39.542Z,38.98
2023-10-06T13:21:10.017Z,37.33
2023-10-06T13:23:39.574Z,37.04
2023-10-06T13:26:10.512Z,37.32
2023-10-06T13:28:43.353Z,37.79
2023-10-06T13:31:13.228Z,37.50
2023-10-06T13:33:41.803Z,38.09
2023-10-06T13:36:10.489Z,38.10
2023-10-06T13:38:41.134Z,38.86
2023-10-06T13:41:10.100Z,40.61
2023-10-06T13:43:38.382Z,41.03
2023-10-06T13:46:08.391Z,42.65
2023-10-06T13:48:36.867Z,42.03
2023-10-06T13:51:05.121Z,42.07
2023-10-06T13:53:33.434Z,41.97
2023-10-06T13:56:01.726Z,42.02
2023-10-06T13:58:31.143Z,43.89
2023-10-06T14:00:59.897Z,42.87
2023-10-06T14:03:32.931Z,44.31
2023-10-06T14:06:05.522Z,43.89
2023-10-06T14:08:35.040Z,44.17
2023-10-06T14:11:06.125Z,44.89
2023-10-06T14:13:36.589Z,45.38
2023-10-06T14:16:10.883Z,44.76
2023-10-06T14:18:41.614Z,45.58
2023-10-06T14:21:12.816Z,45.63
2023-10-06T14:26:35.423Z,46.39
2023-10-06T14:29:07.192Z,46.48
2023-10-06T14:31:38.764Z,45.73
2023-10-06T14:34:35.279Z,46.60
2023-10-06T14:37:12.706Z,47.78
2023-10-06T14:39:59.001Z,48.02
2023-10-06T14:42:44.979Z,47.35
2023-10-06T14:45:31.312Z,48.08
2023-10-06T14:48:02.111Z,48.77
2023-10-06T14:50:36.103Z,49.03
2023-10-06T14:53:04.881Z,48.82
2023-10-06T14:55:39.687Z,49.01
2023-10-06T14:58:09.795Z,48.77
2023-10-06T15:00:38.988Z,47.62
2023-10-06T15:03:13.341Z,47.78
2023-10-06T15:05:44.735Z,47.72
2023-10-06T15:08:14.459Z,48.27
2023-10-06T15:10:43.260Z,47.88
2023-10-06T15:13:14.194Z,49.08
2023-10-06T15:15:45.502Z,48.46
2023-10-06T15:18:17.306Z,48.83
2023-10-06T15:20:49.002Z,49.70
2023-10-06T15:23:19.166Z,49.85
2023-10-06T15:25:57.368Z,49.35
2023-10-06T15:28:38.130Z,49.43
2023-10-06T15:31:08.174Z,49.22
2023-10-06T15:33:37.055Z,49.94
2023-10-06T15:36:07.706Z,49.61
2023-10-06T15:38:37.212Z,49.93
2023-10-06T15:41:11.793Z,49.66
2023-10-06T15:43:41.577Z,48.91
2023-10-06T15:46:11.739Z,49.49
2023-10-06T15:48:42.104Z,48.91
2023-10-06T15:51:14.947Z,49.32
2023-10-06T15:53:45.805Z,48.86
2023-10-06T15:56:17.544Z,49.63
2023-10-06T15:58:48.206Z,49.44
2023-10-06T16:01:19.604Z,49.54
2023-10-06T16:03:49.106Z,50.15
2023-10-06T16:06:21.461Z,50.58
2023-10-06T16:08:50.951Z,50.93
2023-10-06T16:11:19.884Z,50.93
2023-10-06T16:13:48.292Z,50.92
2023-10-06T16:16:19.079Z,50.93
2023-10-06T16:18:51.570Z,51.14
2023-10-06T16:21:21.524Z,51.36
2023-10-06T16:23:53.199Z,50.95
2023-10-06T16:26:24.552Z,50.98
2023-10-06T16:28:52.817Z,51.37
2023-10-06T16:31:21.223Z,51.76
2023-10-06T16:33:49.522Z,52.00
2023-10-06T16:36:22.984Z,52.30
2023-10-06T16:38:52.549Z,52.21
2023-10-06T16:41:22.806Z,52.34
2023-10-06T16:43:52.720Z,52.32
2023-10-06T16:46:21.764Z,52.09
2023-10-06T16:48:50.278Z,52.64
2023-10-06T16:51:21.094Z,51.88
2023-10-06T16:53:50.267Z,51.79
2023-10-06T16:56:24.247Z,51.79
2023-10-06T16:58:52.734Z,51.51
2023-10-06T17:01:22.496Z,51.77
2023-10-06T17:03:50.832Z,51.50
2023-10-06T17:06:22.129Z,51.74
2023-10-06T17:08:50.793Z,51.77
2023-10-06T17:11:20.696Z,51.30
2023-10-06T17:13:50.520Z,51.39
2023-10-06T17:16:19.066Z,51.12
2023-10-06T17:18:47.470Z,51.27
2023-10-06T17:21:16.812Z,51.30
2023-10-06T17:23:46.772Z,51.97
2023-10-06T17:26:15.488Z,52.10
2023-10-06T17:28:44.641Z,52.48
2023-10-06T17:31:16.902Z,52.15
2023-10-06T17:33:46.700Z,52.36
2023-10-06T17:36:15.159Z,52.26
2023-10-06T17:38:44.195Z,52.44
2023-10-06T17:41:17.522Z,52.21
2023-10-06T17:43:47.992Z,52.56
2023-10-06T17:46:18.251Z,52.07
2023-10-06T17:48:48.346Z,51.62
2023-10-06T17:51:20.521Z,52.28
2023-10-06T17:53:50.364Z,52.65
2023-10-06T17:56:22.950Z,52.56
2023-10-06T17:58:53.615Z,52.30
2023-10-06T18:01:23.815Z,52.08
2023-10-06T18:03:52.607Z,52.41
2023-10-06T18:06:22.308Z,52.30
2023-10-06T18:08:50.978Z,52.46
2023-10-06T18:11:21.410Z,52.02
2023-10-06T18:13:50.863Z,51.87
2023-10-06T18:16:19.824Z,51.86
2023-10-06T18:18:48.643Z,52.00
2023-10-06T18:21:18.781Z,51.80
2023-10-06T18:23:48.152Z,52.15
2023-10-06T18:26:20.322Z,52.14
2023-10-06T18:28:50.531Z,52.19
2023-10-06T18:31:19.962Z,52.17
2023-10-06T18:33:50.190Z,52.33
2023-10-06T18:36:18.974Z,52.43
2023-10-06T18:38:49.716Z,52.59
2023-10-06T18:41:18.816Z,52.24
2023-10-06T18:43:47.721Z,52.57
2023-10-06T18:46:20.191Z,52.31
2023-10-06T18:48:49.555Z,52.73
2023-10-06T18:51:18.078Z,52.45
2023-10-06T18:53:46.705Z,52.45
2023-10-06T18:56:15.781Z,52.24
2023-10-06T18:58:47.522Z,52.16
2023-10-06T19:01:17.609Z,51.93
2023-10-06T19:03:46.295Z,52.43
2023-10-06T19:06:18.822Z,52.37
2023-10-06T19:08:51.390Z,52.39
2023-10-06T19:11:21.515Z,52.82
2023-10-06T19:13:50.942Z,52.49
2023-10-06T19:16:21.834Z,52.88
2023-10-06T19:18:51.713Z,52.77
2023-10-06T19:21:24.878Z,52.78
2023-10-06T19:23:53.369Z,52.42
2023-10-06T19:26:23.211Z,52.88
2023-10-06T19:28:51.655Z,53.07
2023-10-06T19:31:21.870Z,52.91
2023-10-06T19:33:51.982Z,52.92
2023-10-06T19:36:21.880Z,52.89
2023-10-06T19:38:51.905Z,52.77
2023-10-06T19:41:22.925Z,52.78
2023-10-06T19:43:51.670Z,53.29
2023-10-06T19:46:22.586Z,53.72
2023-10-06T19:48:55.012Z,53.51
2023-10-06T19:51:24.329Z,53.47
2023-10-06T19:53:53.441Z,54.28
2023-10-06T19:56:25.487Z,54.42
2023-10-06T19:58:56.366Z,54.32
2023-10-06T20:01:26.446Z,54.66
2023-10-06T20:03:54.985Z,54.28
2023-10-06T20:06:23.556Z,54.31
2023-10-06T20:08:52.057Z,55.03
2023-10-06T20:11:21.858Z,55.36
2023-10-06T20:13:50.792Z,55.45
2023-10-06T20:16:19.814Z,55.36
2023-10-06T20:18:50.421Z,55.19
2023-10-06T20:21:19.308Z,55.03
2023-10-06T20:23:52.304Z,55.34
2023-10-06T20:26:21.453Z,55.23
2023-10-06T20:28:50.231Z,55.74
2023-10-06T20:31:18.862Z,55.03
2023-10-06T20:33:49.210Z,55.92
2023-10-06T20:36:18.068Z,55.79
2023-10-06T20:38:46.536Z,56.25
2023-10-06T20:41:15.361Z,56.03
2023-10-06T20:43:43.988Z,56.34
2023-10-06T20:46:15.691Z,56.23
2023-10-06T20:48:44.206Z,56.15
2023-10-06T20:51:18.080Z,55.96
2023-10-06T20:53:46.860Z,56.24
2023-10-06T20:56:15.639Z,56.23
2023-10-06T20:58:45.398Z,55.94
2023-10-06T21:01:15.544Z,56.24
2023-10-06T21:03:44.391Z,56.52
2023-10-06T21:06:13.694Z,56.56
2023-10-06T21:08:43.553Z,56.74
2023-10-06T21:11:14.071Z,56.66
2023-10-06T21:13:43.772Z,56.51
2023-10-06T21:16:12.268Z,56.26
2023-10-06T21:18:40.902Z,56.50
2023-10-06T21:21:09.499Z,56.29
2023-10-06T21:23:38.744Z,56.44
2023-10-06T21:26:08.334Z,56.58
2023-10-06T21:28:37.574Z,56.41
2023-10-06T21:31:06.444Z,56.35
2023-10-06T21:33:34.834Z,56.26
2023-10-06T21:36:03.456Z,56.68
2023-10-06T21:38:32.919Z,56.94
2023-10-06T21:41:02.107Z,56.60
2023-10-06T21:43:31.701Z,56.24
2023-10-06T21:46:02.223Z,56.38
2023-10-06T21:48:32.890Z,56.81
2023-10-06T21:51:01.135Z,56.83
2023-10-06T21:53:29.564Z,56.26
2023-10-06T21:55:58.423Z,56.87
2023-10-06T21:58:26.836Z,57.03
2023-10-06T22:00:57.259Z,57.17
2023-10-06T22:03:26.017Z,56.57
2023-10-06T22:05:55.599Z,56.36
2023-10-06T22:08:24.294Z,57.22
2023-10-06T22:10:55.348Z,57.23
2023-10-06T22:13:23.728Z,56.56
2023-10-06T22:15:51.983Z,56.65
2023-10-06T22:18:22.789Z,55.96
2023-10-06T22:20:51.045Z,56.68
2023-10-06T22:23:22.276Z,56.91
2023-10-06T22:25:52.197Z,56.27
2023-10-06T22:28:21.783Z,56.90
2023-10-06T22:30:50.266Z,56.00
2023-10-06T22:33:18.910Z,56.09
2023-10-06T22:35:48.822Z,55.92
2023-10-06T22:38:17.087Z,56.10
2023-10-06T22:40:45.297Z,56.87
2023-10-06T22:43:13.503Z,56.08
2023-10-06T22:45:41.823Z,55.81
2023-10-06T22:48:10.758Z,56.17
2023-10-06T22:50:39.222Z,55.82
2023-10-06T22:53:09.632Z,56.28
2023-10-06T22:55:38.875Z,56.75
2023-10-06T22:58:07.177Z,56.96
2023-10-06T23:00:35.643Z,56.41
2023-10-06T23:03:04.107Z,56.43
2023-10-06T23:05:32.429Z,57.06
2023-10-06T23:08:00.638Z,56.68
2023-10-06T23:10:31.138Z,57.09
2023-10-06T23:13:01.686Z,57.07
2023-10-06T23:15:33.068Z,56.24
2023-10-06T23:18:01.958Z,57.44
2023-10-06T23:20:31.696Z,57.13
2023-10-06T23:23:00.584Z,56.52
2023-10-06T23:25:38.093Z,56.84
2023-10-06T23:28:08.408Z,57.83
2023-10-06T23:30:38.149Z,57.33
2023-10-06T23:33:07.573Z,58.86
2023-10-06T23:35:36.421Z,58.52
2023-10-06T23:38:07.999Z,59.70
2023-10-06T23:40:39.764Z,60.53
2023-10-06T23:43:09.814Z,61.00
2023-10-06T23:45:39.771Z,61.97
2023-10-06T23:48:12.645Z,62.56
2023-10-06T23:50:52.734Z,63.36
2023-10-06T23:53:24.122Z,63.83
2023-10-06T23:55:54.460Z,64.85
2023-10-06T23:58:23.795Z,64.78
